createdAt,value
2019-02-25T00:00:20.246Z,27.58
2019-02-25T00:01:20.200Z,27.60
2019-02-25T00:02:20.157Z,27.68
2019-02-25T00:03:20.129Z,27.73
2019-02-25T00:04:20.070Z,27.75
2019-02-25T00:05:20.026Z,27.70
2019-02-25T00:06:19.982Z,27.63
2019-02-25T00:07:19.939Z,27.63
2019-02-25T00:08:19.889Z,27.63
2019-02-25T00:09:19.863Z,27.55
2019-02-25T00:10:19.799Z,27.58
2019-02-25T00:11:19.762Z,27.45
2019-02-25T00:12:19.700Z,27.44
2019-02-25T00:13:19.668Z,27.35
2019-02-25T00:14:19.624Z,27.29
2019-02-25T00:15:19.601Z,27.27
2019-02-25T00:16:19.551Z,27.27
2019-02-25T00:17:19.514Z,27.17
2019-02-25T00:18:19.470Z,27.18
2019-02-25T00:19:19.405Z,27.08
2019-02-25T00:20:19.350Z,27.17
2019-02-25T00:21:19.338Z,27.11
2019-02-25T00:22:19.284Z,27.05
2019-02-25T00:23:19.230Z,27.07
2019-02-25T00:24:19.204Z,27.10
2019-02-25T00:25:19.142Z,27.08
2019-02-25T00:26:19.120Z,27.05
2019-02-25T00:27:19.074Z,27.07
2019-02-25T00:28:19.010Z,27.05
2019-02-25T00:29:18.967Z,26.90
2019-02-25T00:30:18.922Z,26.81
2019-02-25T00:31:18.887Z,26.85
2019-02-25T00:32:18.843Z,26.80
2019-02-25T00:33:18.779Z,26.73
2019-02-25T00:34:18.734Z,26.66
2019-02-25T00:35:18.723Z,26.71
2019-02-25T00:36:18.667Z,26.65
2019-02-25T00:37:18.635Z,26.55
2019-02-25T00:38:18.583Z,26.63
2019-02-25T00:39:18.546Z,26.63
2019-02-25T00:40:18.502Z,26.55
2019-02-25T00:41:18.438Z,26.60
2019-02-25T00:42:18.406Z,26.60
2019-02-25T00:43:18.350Z,26.65
2019-02-25T00:44:18.326Z,26.66
2019-02-25T00:45:18.278Z,26.55
2019-02-25T00:46:18.239Z,26.59
2019-02-25T00:47:18.198Z,26.55
2019-02-25T00:48:18.129Z,26.45
2019-02-25T00:49:18.094Z,26.29
2019-02-25T00:50:18.050Z,26.31
2019-02-25T00:51:17.989Z,26.36
2019-02-25T00:52:17.973Z,26.33
2019-02-25T00:53:17.896Z,26.31
2019-02-25T00:54:17.884Z,26.33
2019-02-25T00:55:17.828Z,26.37
2019-02-25T00:56:17.763Z,26.23
2019-02-25T00:57:17.743Z,26.29
2019-02-25T00:58:17.707Z,26.28
2019-02-25T00:59:17.630Z,26.16
2019-02-25T01:00:17.586Z,26.13
2019-02-25T01:01:17.573Z,26.05
2019-02-25T01:02:17.520Z,26.07
2019-02-25T01:03:17.465Z,26.06
2019-02-25T01:04:17.424Z,26.03
2019-02-25T01:05:17.396Z,25.99
2019-02-25T01:06:17.331Z,25.98
2019-02-25T01:07:17.288Z,25.99
2019-02-25T01:08:17.243Z,26.06
2019-02-25T01:09:17.207Z,26.07
2019-02-25T01:10:17.154Z,26.07
2019-02-25T01:11:17.109Z,25.99
2019-02-25T01:12:17.074Z,26.06
2019-02-25T01:13:17.009Z,26.00
2019-02-25T01:14:16.969Z,26.03
2019-02-25T01:15:16.951Z,26.06
2019-02-25T01:16:16.888Z,26.05
2019-02-25T01:17:16.843Z,26.00
2019-02-25T01:18:16.799Z,25.91
2019-02-25T01:19:16.754Z,25.91
2019-02-25T01:20:16.730Z,25.84
2019-02-25T01:21:16.665Z,25.96
2019-02-25T01:22:16.630Z,25.91
2019-02-25T01:23:16.576Z,25.90
2019-02-25T01:24:16.553Z,25.88
2019-02-25T01:25:16.476Z,25.85
2019-02-25T01:26:16.431Z,25.80
2019-02-25T01:27:16.398Z,25.73
2019-02-25T01:28:16.365Z,25.73
2019-02-25T01:29:16.298Z,25.77
2019-02-25T01:30:16.285Z,25.60
2019-02-25T01:31:16.241Z,25.60
2019-02-25T01:32:16.164Z,25.77
2019-02-25T01:33:16.121Z,25.70
2019-02-25T01:34:16.108Z,25.75
2019-02-25T01:35:16.042Z,25.80
2019-02-25T01:36:16.007Z,25.77
2019-02-25T01:37:15.962Z,25.73
2019-02-25T01:38:15.918Z,25.78
2019-02-25T01:39:15.864Z,25.87
2019-02-25T01:40:15.808Z,25.87
2019-02-25T01:41:15.796Z,25.85
2019-02-25T01:42:15.740Z,25.81
2019-02-25T01:43:15.707Z,25.80
2019-02-25T01:44:15.662Z,25.83
2019-02-25T01:45:15.597Z,25.72
2019-02-25T01:46:15.561Z,25.72
2019-02-25T01:47:15.509Z,25.77
2019-02-25T01:48:15.472Z,25.75
2019-02-25T01:49:15.407Z,25.63
2019-02-25T01:50:15.394Z,25.62
2019-02-25T01:51:15.331Z,25.62
2019-02-25T01:52:15.273Z,25.60
2019-02-25T01:53:15.261Z,25.70
2019-02-25T01:54:15.205Z,25.72
2019-02-25T01:55:15.171Z,25.62
2019-02-25T01:56:15.127Z,25.63
2019-02-25T01:57:15.071Z,25.73
2019-02-25T01:58:15.038Z,25.69
2019-02-25T01:59:14.993Z,25.84
2019-02-25T02:00:14.954Z,25.78
2019-02-25T02:01:14.883Z,25.78
2019-02-25T02:02:14.828Z,25.83
2019-02-25T02:03:14.814Z,25.78
2019-02-25T02:04:14.751Z,25.77
2019-02-25T02:05:14.699Z,25.60
2019-02-25T02:06:14.650Z,25.59
2019-02-25T02:07:14.604Z,25.58
2019-02-25T02:08:14.571Z,25.55
2019-02-25T02:09:14.536Z,25.69
2019-02-25T02:10:14.504Z,25.80
2019-02-25T02:11:14.459Z,25.70
2019-02-25T02:12:14.382Z,25.84
2019-02-25T02:13:14.633Z,25.96
2019-02-25T02:14:14.313Z,25.90
2019-02-25T02:15:14.253Z,25.88
2019-02-25T02:16:14.236Z,25.83
2019-02-25T02:17:14.171Z,25.72
2019-02-25T02:18:14.126Z,25.73
2019-02-25T02:19:14.102Z,25.75
2019-02-25T02:20:14.059Z,25.68
2019-02-25T02:21:14.013Z,25.84
2019-02-25T02:22:13.954Z,25.73
2019-02-25T02:23:13.892Z,25.75
2019-02-25T02:24:13.847Z,25.81
2019-02-25T02:25:13.815Z,25.77
2019-02-25T02:26:13.779Z,25.83
2019-02-25T02:27:13.726Z,25.73
2019-02-25T02:28:13.702Z,25.84
2019-02-25T02:29:13.636Z,25.77
2019-02-25T02:30:13.595Z,25.70
2019-02-25T02:31:13.557Z,25.69
2019-02-25T02:32:13.491Z,25.72
2019-02-25T02:33:13.468Z,25.68
2019-02-25T02:34:13.434Z,25.68
2019-02-25T02:35:13.372Z,25.62
2019-02-25T02:36:13.346Z,25.65
2019-02-25T02:37:13.269Z,25.60
2019-02-25T02:38:13.276Z,25.72
2019-02-25T02:39:13.179Z,25.75
2019-02-25T02:40:13.140Z,25.72
2019-02-25T02:41:13.090Z,25.80
2019-02-25T02:42:13.059Z,25.81
2019-02-25T02:43:13.002Z,25.78
2019-02-25T02:44:12.980Z,25.84
2019-02-25T02:45:12.912Z,25.85
2019-02-25T02:46:12.869Z,25.85
2019-02-25T02:47:12.843Z,25.93
2019-02-25T02:48:12.811Z,25.88
2019-02-25T02:49:12.766Z,25.95
2019-02-25T02:50:12.703Z,25.85
2019-02-25T02:51:12.672Z,25.88
2019-02-25T02:52:12.640Z,26.00
2019-02-25T02:53:12.657Z,26.00
2019-02-25T02:54:12.523Z,25.96
2019-02-25T02:55:12.479Z,25.88
2019-02-25T02:56:12.444Z,26.05
2019-02-25T02:57:12.399Z,25.95
2019-02-25T02:58:12.334Z,25.99
2019-02-25T02:59:12.301Z,26.03
2019-02-25T03:00:12.278Z,26.06
2019-02-25T03:01:12.233Z,26.00
2019-02-25T03:02:12.167Z,26.05
2019-02-25T03:03:12.133Z,25.99
2019-02-25T03:04:12.067Z,26.02
2019-02-25T03:05:12.054Z,26.00
2019-02-25T03:06:11.999Z,26.02
2019-02-25T03:07:11.966Z,26.09
2019-02-25T03:08:11.911Z,26.09
2019-02-25T03:09:11.877Z,26.07
2019-02-25T03:10:11.833Z,26.00
2019-02-25T03:11:11.768Z,26.15
2019-02-25T03:12:11.712Z,26.06
2019-02-25T03:13:11.679Z,26.05
2019-02-25T03:14:11.623Z,26.02
2019-02-25T03:15:11.611Z,26.03
2019-02-25T03:16:11.570Z,26.00
2019-02-25T03:17:11.491Z,25.88
2019-02-25T03:18:11.473Z,25.85
2019-02-25T03:19:11.432Z,25.78
2019-02-25T03:20:11.374Z,25.72
2019-02-25T03:21:11.333Z,25.90
2019-02-25T03:22:11.280Z,25.83
2019-02-25T03:23:11.244Z,25.78
2019-02-25T03:24:11.199Z,25.81
2019-02-25T03:25:11.146Z,25.91
2019-02-25T03:26:11.122Z,25.81
2019-02-25T03:27:11.045Z,25.77
2019-02-25T03:28:11.021Z,25.70
2019-02-25T03:29:10.968Z,25.65
2019-02-25T03:30:10.929Z,25.59
2019-02-25T03:31:10.901Z,25.63
2019-02-25T03:32:10.850Z,25.55
2019-02-25T03:33:10.781Z,25.46
2019-02-25T03:34:10.735Z,25.35
2019-02-25T03:35:10.722Z,25.35
2019-02-25T03:36:10.659Z,25.31
2019-02-25T03:37:10.621Z,25.23
2019-02-25T03:38:10.589Z,25.29
2019-02-25T03:39:10.525Z,25.25
2019-02-25T03:40:10.487Z,25.29
2019-02-25T03:41:10.425Z,25.28
2019-02-25T03:42:10.409Z,25.28
2019-02-25T03:43:10.368Z,25.29
2019-02-25T03:44:10.308Z,25.32
2019-02-25T03:45:10.275Z,25.21
2019-02-25T03:46:10.219Z,25.18
2019-02-25T03:47:10.194Z,25.21
2019-02-25T03:48:10.144Z,25.18
2019-02-25T03:49:10.098Z,25.18
2019-02-25T03:50:10.042Z,25.29
2019-02-25T03:51:09.996Z,25.25
2019-02-25T03:52:09.932Z,25.25
2019-02-25T03:53:09.906Z,25.29
2019-02-25T03:54:09.853Z,25.29
2019-02-25T03:55:14.078Z,25.31
2019-02-25T03:56:09.763Z,25.32
2019-02-25T03:57:09.708Z,25.32
2019-02-25T03:58:09.673Z,25.32
2019-02-25T03:59:09.638Z,25.40
2019-02-25T04:00:09.593Z,25.41
2019-02-25T04:01:09.548Z,25.41
2019-02-25T04:02:09.494Z,25.47
2019-02-25T04:03:09.473Z,25.53
2019-02-25T04:04:09.405Z,25.55
2019-02-25T04:05:09.360Z,25.63
2019-02-25T04:06:09.305Z,25.60
2019-02-25T04:07:09.291Z,25.62
2019-02-25T04:08:09.241Z,25.58
2019-02-25T04:09:09.181Z,25.59
2019-02-25T04:10:09.158Z,25.50
2019-02-25T04:11:09.093Z,25.54
2019-02-25T04:12:09.050Z,25.55
2019-02-25T04:13:08.992Z,25.63
2019-02-25T04:14:08.962Z,25.63
2019-02-25T04:15:08.928Z,25.66
2019-02-25T04:16:08.878Z,25.58
2019-02-25T04:17:08.847Z,25.48
2019-02-25T04:18:08.825Z,25.51
2019-02-25T04:19:08.757Z,25.53
2019-02-25T04:20:08.693Z,25.38
2019-02-25T04:21:08.655Z,25.43
2019-02-25T04:22:08.616Z,25.41
2019-02-25T04:23:08.545Z,25.32
2019-02-25T04:24:08.524Z,25.25
2019-02-25T04:25:08.471Z,25.22
2019-02-25T04:26:08.431Z,25.29
2019-02-25T04:27:08.366Z,25.31
2019-02-25T04:28:08.321Z,25.28
2019-02-25T04:29:08.297Z,25.40
2019-02-25T04:30:08.244Z,25.31
2019-02-25T04:31:08.221Z,25.40
2019-02-25T04:32:08.175Z,25.46
2019-02-25T04:33:08.098Z,25.44
2019-02-25T04:34:08.067Z,25.51
2019-02-25T04:35:08.030Z,25.46
2019-02-25T04:36:07.997Z,25.51
2019-02-25T04:37:07.953Z,25.54
2019-02-25T04:38:07.908Z,25.53
2019-02-25T04:39:07.844Z,25.54
2019-02-25T04:40:07.822Z,25.62
2019-02-25T04:41:07.773Z,25.66
2019-02-25T04:42:07.701Z,25.70
2019-02-25T04:43:07.684Z,25.69
2019-02-25T04:44:07.618Z,25.77
2019-02-25T04:45:07.595Z,25.69
2019-02-25T04:46:07.550Z,25.70
2019-02-25T04:47:07.473Z,25.63
2019-02-25T04:48:07.453Z,25.60
2019-02-25T04:49:07.407Z,25.65
2019-02-25T04:50:07.360Z,25.65
2019-02-25T04:51:07.316Z,25.48
2019-02-25T04:52:07.283Z,25.55
2019-02-25T04:53:07.217Z,25.51
2019-02-25T04:54:07.184Z,25.66
2019-02-25T04:55:07.150Z,25.59
2019-02-25T04:56:07.083Z,25.63
2019-02-25T04:57:07.048Z,25.63
2019-02-25T04:58:07.014Z,25.62
2019-02-25T04:59:06.961Z,25.77
2019-02-25T05:00:06.925Z,25.62
2019-02-25T05:01:06.849Z,25.63
2019-02-25T05:02:06.837Z,25.60
2019-02-25T05:03:06.771Z,25.66
2019-02-25T05:04:06.715Z,25.65
2019-02-25T05:05:06.703Z,25.65
2019-02-25T05:06:06.627Z,25.50
2019-02-25T05:07:06.583Z,25.50
2019-02-25T05:08:06.548Z,25.60
2019-02-25T05:09:06.524Z,25.63
2019-02-25T05:10:06.450Z,25.63
2019-02-25T05:11:06.423Z,25.63
2019-02-25T05:12:06.362Z,25.63
2019-02-25T05:13:06.329Z,25.55
2019-02-25T05:14:06.269Z,25.65
2019-02-25T05:15:06.236Z,25.60
2019-02-25T05:16:06.201Z,25.51
2019-02-25T05:17:06.156Z,25.65
2019-02-25T05:18:06.123Z,25.60
2019-02-25T05:19:06.078Z,25.58
2019-02-25T05:20:06.002Z,25.73
2019-02-25T05:21:05.958Z,25.70
2019-02-25T05:22:05.954Z,25.70
2019-02-25T05:23:05.868Z,25.77
2019-02-25T05:24:05.857Z,25.65
2019-02-25T05:25:05.788Z,25.72
2019-02-25T05:26:05.748Z,25.68
2019-02-25T05:27:05.693Z,25.62
2019-02-25T05:28:05.647Z,25.46
2019-02-25T05:29:05.633Z,25.53
2019-02-25T05:30:05.560Z,25.50
2019-02-25T05:31:05.534Z,25.41
2019-02-25T05:32:05.499Z,25.32
2019-02-25T05:33:05.475Z,25.36
2019-02-25T05:34:05.378Z,25.33
2019-02-25T05:35:05.355Z,25.28
2019-02-25T05:36:05.311Z,25.32
2019-02-25T05:37:05.265Z,25.26
2019-02-25T05:38:05.234Z,25.29
2019-02-25T05:39:05.165Z,25.22
2019-02-25T05:40:05.110Z,25.26
2019-02-25T05:41:05.099Z,25.17
2019-02-25T05:42:05.052Z,25.16
2019-02-25T05:43:05.014Z,25.13
2019-02-25T05:44:04.951Z,25.14
2019-02-25T05:45:04.908Z,25.11
2019-02-25T05:46:04.863Z,25.11
2019-02-25T05:47:04.834Z,25.14
2019-02-25T05:48:04.767Z,25.16
2019-02-25T05:49:04.719Z,25.14
2019-02-25T05:50:04.694Z,25.13
2019-02-25T05:51:04.627Z,25.11
2019-02-25T05:52:04.585Z,25.03
2019-02-25T05:53:04.540Z,24.99
2019-02-25T05:54:04.498Z,25.10
2019-02-25T05:55:04.470Z,25.16
2019-02-25T05:56:04.406Z,25.14
2019-02-25T05:57:04.381Z,25.13
2019-02-25T05:58:04.308Z,25.17
2019-02-25T05:59:04.282Z,25.29
2019-02-25T06:00:04.225Z,25.13
2019-02-25T06:01:04.201Z,25.21
2019-02-25T06:02:05.522Z,25.23
2019-02-25T06:03:04.087Z,25.25
2019-02-25T06:04:04.067Z,25.25
2019-02-25T06:05:04.002Z,25.31
2019-02-25T06:06:03.966Z,25.31
2019-02-25T06:07:03.901Z,25.35
2019-02-25T06:08:03.861Z,25.33
2019-02-25T06:09:03.831Z,25.25
2019-02-25T06:10:03.806Z,25.22
2019-02-25T06:11:03.721Z,25.23
2019-02-25T06:12:03.677Z,25.28
2019-02-25T06:13:03.654Z,25.25
2019-02-25T06:14:03.588Z,25.18
2019-02-25T06:15:03.575Z,25.16
2019-02-25T06:16:03.518Z,25.16
2019-02-25T06:17:03.486Z,25.32
2019-02-25T06:18:03.441Z,25.17
2019-02-25T06:19:03.380Z,25.22
2019-02-25T06:20:03.319Z,25.11
2019-02-25T06:21:03.274Z,25.25
2019-02-25T06:22:03.242Z,25.13
2019-02-25T06:23:03.225Z,25.10
2019-02-25T06:24:03.151Z,25.16
2019-02-25T06:25:03.115Z,25.22
2019-02-25T06:26:03.084Z,25.17
2019-02-25T06:27:03.006Z,25.18
2019-02-25T06:28:02.981Z,25.16
2019-02-25T06:29:02.919Z,25.16
2019-02-25T06:30:02.883Z,25.25
2019-02-25T06:31:02.839Z,25.25
2019-02-25T06:32:02.781Z,25.31
2019-02-25T06:33:02.737Z,25.29
2019-02-25T06:34:02.705Z,25.33
2019-02-25T06:35:02.668Z,25.35
2019-02-25T06:36:02.623Z,25.41
2019-02-25T06:37:02.558Z,25.35
2019-02-25T06:38:02.527Z,25.36
2019-02-25T06:39:02.480Z,25.41
2019-02-25T06:40:02.424Z,25.43
2019-02-25T06:41:02.414Z,25.47
2019-02-25T06:42:02.366Z,25.48
2019-02-25T06:43:02.323Z,25.41
2019-02-25T06:44:02.276Z,25.23
2019-02-25T06:45:02.212Z,25.17
2019-02-25T06:46:02.167Z,25.28
2019-02-25T06:47:02.112Z,25.11
2019-02-25T06:48:02.077Z,25.11
2019-02-25T06:49:02.036Z,25.11
2019-02-25T06:50:02.010Z,25.11
2019-02-25T06:51:01.955Z,25.07
2019-02-25T06:52:01.907Z,25.03
2019-02-25T06:53:01.846Z,25.08
2019-02-25T06:54:01.799Z,25.13
2019-02-25T06:55:01.767Z,25.08
2019-02-25T06:56:01.787Z,25.17
2019-02-25T06:57:01.696Z,25.18
2019-02-25T06:58:01.618Z,25.16
2019-02-25T06:59:01.574Z,25.11
2019-02-25T07:00:01.531Z,25.17
2019-02-25T07:01:01.496Z,25.29
2019-02-25T07:02:01.472Z,25.16
2019-02-25T07:03:01.427Z,25.13
2019-02-25T07:04:01.382Z,25.16
2019-02-25T07:05:01.311Z,25.21
2019-02-25T07:06:01.282Z,25.18
2019-02-25T07:07:01.236Z,25.16
2019-02-25T07:08:01.171Z,25.18
2019-02-25T07:09:01.159Z,25.21
2019-02-25T07:10:01.114Z,25.23
2019-02-25T07:11:01.060Z,25.16
2019-02-25T07:12:01.017Z,25.29
2019-02-25T07:13:00.968Z,25.17
2019-02-25T07:14:00.934Z,25.21
2019-02-25T07:15:00.858Z,25.22
2019-02-25T07:16:00.825Z,25.29
2019-02-25T07:17:00.780Z,25.26
2019-02-25T07:18:00.735Z,25.29
2019-02-25T07:19:00.711Z,25.32
2019-02-25T07:20:00.655Z,25.38
2019-02-25T07:21:00.622Z,25.36
2019-02-25T07:22:00.558Z,25.38
2019-02-25T07:23:00.521Z,25.38
2019-02-25T07:24:00.488Z,25.32
2019-02-25T07:25:00.430Z,25.33
2019-02-25T07:26:00.387Z,25.38
2019-02-25T07:27:00.322Z,25.38
2019-02-25T07:28:00.288Z,25.40
2019-02-25T07:29:00.245Z,25.33
2019-02-25T07:30:00.228Z,25.28
2019-02-25T07:31:00.144Z,25.26
2019-02-25T07:32:00.130Z,25.23
2019-02-25T07:33:00.086Z,25.22
2019-02-25T07:34:00.023Z,25.31
2019-02-25T07:34:59.986Z,25.22
2019-02-25T07:35:59.940Z,25.31
2019-02-25T07:36:59.895Z,25.28
2019-02-25T07:37:59.833Z,25.32
2019-02-25T07:38:59.817Z,25.33
2019-02-25T07:39:59.761Z,25.31
2019-02-25T07:40:59.728Z,25.40
2019-02-25T07:41:59.674Z,25.40
2019-02-25T07:42:59.637Z,25.44
2019-02-25T07:43:59.582Z,25.47
2019-02-25T07:44:59.529Z,25.44
2019-02-25T07:45:59.472Z,25.40
2019-02-25T07:46:59.428Z,25.40
2019-02-25T07:47:59.395Z,25.43
2019-02-25T07:48:59.372Z,25.40
2019-02-25T07:49:59.314Z,25.33
2019-02-25T07:50:59.281Z,25.18
2019-02-25T07:51:59.236Z,25.11
2019-02-25T07:52:59.190Z,25.13
2019-02-25T07:53:59.135Z,25.06
2019-02-25T07:54:59.102Z,25.17
2019-02-25T07:56:02.300Z,25.11
2019-02-25T07:56:58.981Z,25.17
2019-02-25T07:57:58.947Z,25.16
2019-02-25T07:58:58.925Z,25.23
2019-02-25T07:59:58.880Z,25.26
2019-02-25T08:00:58.834Z,25.21
2019-02-25T08:01:58.790Z,25.18
2019-02-25T08:02:58.745Z,25.14
2019-02-25T08:03:58.667Z,25.18
2019-02-25T08:04:58.637Z,25.28
2019-02-25T08:05:58.590Z,25.14
2019-02-25T08:06:58.569Z,25.16
2019-02-25T08:07:58.488Z,25.14
2019-02-25T08:08:58.457Z,25.10
2019-02-25T08:09:58.401Z,25.16
2019-02-25T08:10:58.357Z,25.10
2019-02-25T08:11:58.332Z,25.17
2019-02-25T08:12:58.266Z,25.11
2019-02-25T08:13:58.220Z,25.01
2019-02-25T08:14:58.177Z,25.13
2019-02-25T08:15:58.142Z,25.01
2019-02-25T08:16:58.097Z,25.03
2019-02-25T08:17:58.058Z,24.98
2019-02-25T08:18:58.008Z,24.93
2019-02-25T08:19:57.984Z,24.96
2019-02-25T08:20:57.930Z,25.07
2019-02-25T08:21:57.898Z,25.07
2019-02-25T08:22:57.849Z,25.03
2019-02-25T08:23:57.784Z,25.06
2019-02-25T08:24:57.728Z,25.11
2019-02-25T08:25:57.715Z,25.11
2019-02-25T08:26:57.657Z,25.16
2019-02-25T08:27:57.594Z,25.14
2019-02-25T08:28:57.549Z,25.21
2019-02-25T08:29:57.505Z,25.33
2019-02-25T08:30:57.473Z,25.31
2019-02-25T08:31:57.434Z,25.32
2019-02-25T08:32:57.390Z,25.32
2019-02-25T08:33:57.345Z,25.35
2019-02-25T08:34:57.314Z,25.40
2019-02-25T08:35:57.237Z,25.40
2019-02-25T08:37:02.441Z,25.50
2019-02-25T08:37:57.157Z,25.46
2019-02-25T08:38:57.123Z,25.54
2019-02-25T08:39:57.091Z,25.46
2019-02-25T08:40:57.026Z,25.41
2019-02-25T08:41:56.979Z,25.44
2019-02-25T08:42:56.944Z,25.48
2019-02-25T08:43:56.898Z,25.44
2019-02-25T08:44:56.847Z,25.47
2019-02-25T08:45:56.821Z,25.48
2019-02-25T08:46:56.745Z,25.40
2019-02-25T08:47:56.699Z,25.43
2019-02-25T08:48:56.666Z,25.48
2019-02-25T08:49:56.609Z,25.46
2019-02-25T08:50:56.586Z,25.44
2019-02-25T08:51:56.552Z,25.47
2019-02-25T08:52:56.487Z,25.48
2019-02-25T08:53:56.444Z,25.40
2019-02-25T08:54:56.407Z,25.33
2019-02-25T08:55:58.302Z,25.31
2019-02-25T08:56:56.329Z,25.31
2019-02-25T08:57:56.264Z,25.28
2019-02-25T08:58:56.240Z,25.28
2019-02-25T08:59:56.196Z,25.29
2019-02-25T09:00:56.140Z,25.29
2019-02-25T09:01:56.085Z,25.31
2019-02-25T09:02:56.029Z,25.32
2019-02-25T09:03:56.006Z,25.32
2019-02-25T09:04:55.962Z,25.28
2019-02-25T09:05:55.907Z,25.28
2019-02-25T09:06:55.851Z,25.28
2019-02-25T09:07:55.810Z,25.32
2019-02-25T09:08:55.772Z,25.26
2019-02-25T09:09:55.750Z,25.29
2019-02-25T09:10:55.672Z,25.35
2019-02-25T09:11:55.659Z,25.38
2019-02-25T09:12:55.603Z,25.32
2019-02-25T09:13:55.558Z,25.35
2019-02-25T09:14:55.492Z,25.46
2019-02-25T09:15:55.449Z,25.32
2019-02-25T09:16:55.416Z,25.38
2019-02-25T09:17:55.379Z,25.38
2019-02-25T09:18:55.327Z,25.41
2019-02-25T09:19:55.293Z,25.31
2019-02-25T09:20:55.225Z,25.28
2019-02-25T09:21:55.191Z,25.28
2019-02-25T09:22:55.156Z,25.31
2019-02-25T09:23:55.112Z,25.28
2019-02-25T09:24:55.058Z,25.38
2019-02-25T09:25:55.034Z,25.31
2019-02-25T09:26:54.989Z,25.28
2019-02-25T09:27:54.933Z,25.29
2019-02-25T09:28:54.899Z,25.31
2019-02-25T09:29:54.855Z,25.26
2019-02-25T09:30:54.778Z,25.35
2019-02-25T09:31:54.769Z,25.35
2019-02-25T09:32:54.710Z,25.36
2019-02-25T09:33:54.646Z,25.40
2019-02-25T09:34:54.611Z,25.41
2019-02-25T09:35:54.587Z,25.41
2019-02-25T09:36:54.512Z,25.46
2019-02-25T09:37:54.501Z,25.40
2019-02-25T09:38:56.544Z,25.43
2019-02-25T09:39:54.409Z,25.46
2019-02-25T09:40:54.331Z,25.47
2019-02-25T09:41:54.287Z,25.40
2019-02-25T09:42:54.274Z,25.32
2019-02-25T09:43:54.219Z,25.32
2019-02-25T09:44:54.175Z,25.40
2019-02-25T09:45:54.127Z,25.33
2019-02-25T09:46:54.084Z,25.33
2019-02-25T09:47:54.038Z,25.31
2019-02-25T09:48:53.987Z,25.36
2019-02-25T09:49:53.965Z,25.38
2019-02-25T09:50:53.919Z,25.51
2019-02-25T09:51:53.873Z,25.50
2019-02-25T09:52:53.818Z,25.50
2019-02-25T09:53:53.784Z,25.48
2019-02-25T09:54:53.708Z,25.48
2019-02-25T09:55:53.662Z,25.33
2019-02-25T09:56:53.640Z,25.32
2019-02-25T09:57:53.592Z,25.31
2019-02-25T09:58:53.532Z,25.29
2019-02-25T09:59:53.505Z,25.16
2019-02-25T10:00:53.453Z,25.18
2019-02-25T10:01:53.409Z,25.18
2019-02-25T10:02:53.367Z,25.31
2019-02-25T10:03:53.341Z,25.33
2019-02-25T10:04:53.274Z,25.46
2019-02-25T10:05:53.221Z,25.44
2019-02-25T10:07:01.975Z,25.47
2019-02-25T10:07:53.132Z,25.62
2019-02-25T10:08:53.124Z,25.63
2019-02-25T10:09:53.058Z,25.69
2019-02-25T10:10:53.029Z,25.66
2019-02-25T10:11:52.968Z,25.59
2019-02-25T10:12:52.921Z,25.78
2019-02-25T10:13:52.898Z,25.78
2019-02-25T10:14:52.833Z,25.87
2019-02-25T10:15:52.816Z,25.81
2019-02-25T10:16:53.958Z,25.84
2019-02-25T10:17:52.702Z,26.31
2019-02-25T10:18:52.668Z,26.65
2019-02-25T10:19:52.603Z,26.93
2019-02-25T10:20:52.593Z,27.32
2019-02-25T10:21:52.531Z,27.92
2019-02-25T10:22:52.511Z,28.17
2019-02-25T10:23:52.446Z,28.14
2019-02-25T10:24:52.426Z,28.25
2019-02-25T10:25:52.386Z,28.23
2019-02-25T10:26:52.325Z,27.74
2019-02-25T10:27:52.306Z,27.44
2019-02-25T10:28:52.233Z,27.26
2019-02-25T10:29:52.199Z,27.05
2019-02-25T10:30:53.164Z,27.07
2019-02-25T10:31:52.144Z,26.99
2019-02-25T10:32:52.104Z,26.97
2019-02-25T10:33:52.050Z,26.89
2019-02-25T10:34:51.988Z,26.81
2019-02-25T10:35:51.979Z,26.66
2019-02-25T10:36:52.416Z,26.68
2019-02-25T10:37:51.866Z,26.65
2019-02-25T10:38:51.835Z,26.53
2019-02-25T10:39:51.780Z,26.55
2019-02-25T10:40:53.800Z,26.70
2019-02-25T10:41:53.271Z,26.70
2019-02-25T10:42:51.653Z,26.68
2019-02-25T10:43:51.622Z,26.80
2019-02-25T10:44:51.589Z,26.65
2019-02-25T10:45:51.551Z,26.65
2019-02-25T10:46:51.483Z,26.77
2019-02-25T10:47:54.391Z,26.65
2019-02-25T10:48:54.407Z,26.65
2019-02-25T10:49:51.376Z,26.58
2019-02-25T10:50:56.010Z,26.47
2019-02-25T10:51:51.271Z,26.62
2019-02-25T10:52:51.259Z,26.48
2019-02-25T10:53:52.029Z,26.58
2019-02-25T10:54:52.426Z,26.63
2019-02-25T10:55:52.943Z,26.68
2019-02-25T10:56:51.651Z,26.85
2019-02-25T10:57:52.682Z,26.81
2019-02-25T10:58:50.989Z,26.89
2019-02-25T10:59:50.941Z,26.81
2019-02-25T11:00:50.923Z,26.78
2019-02-25T11:01:50.839Z,26.89
2019-02-25T11:02:51.664Z,26.84
2019-02-25T11:03:52.491Z,26.88
2019-02-25T11:04:51.428Z,26.88
2019-02-25T11:05:51.757Z,26.81
2019-02-25T11:06:50.658Z,26.78
2019-02-25T11:07:50.593Z,26.83
2019-02-25T11:08:50.555Z,26.78
2019-02-25T11:09:50.514Z,26.83
2019-02-25T11:10:52.381Z,26.78
2019-02-25T11:11:51.008Z,26.73
2019-02-25T11:12:50.381Z,26.77
2019-02-25T11:13:50.344Z,26.73
2019-02-25T11:14:50.299Z,26.63
2019-02-25T11:15:50.255Z,26.65
2019-02-25T11:16:52.109Z,26.63
2019-02-25T11:17:51.681Z,26.70
2019-02-25T11:18:52.217Z,26.59
2019-02-25T11:19:50.097Z,26.65
2019-02-25T11:20:50.050Z,26.80
2019-02-25T11:21:49.975Z,26.81
2019-02-25T11:22:49.957Z,26.75
2019-02-25T11:23:51.699Z,26.83
2019-02-25T11:24:51.825Z,26.84
2019-02-25T11:25:51.348Z,26.93
2019-02-25T11:26:49.772Z,26.90
2019-02-25T11:27:49.719Z,26.95
2019-02-25T11:28:49.697Z,26.85
2019-02-25T11:29:49.631Z,26.96
2019-02-25T11:30:51.419Z,27.03
2019-02-25T11:31:51.438Z,27.10
2019-02-25T11:32:51.245Z,27.07
2019-02-25T11:33:49.468Z,27.21
2019-02-25T11:34:49.433Z,27.18
2019-02-25T11:35:49.388Z,27.26
2019-02-25T11:36:50.826Z,27.22
2019-02-25T11:37:50.088Z,27.21
2019-02-25T11:38:49.263Z,27.27
2019-02-25T11:39:49.227Z,27.36
2019-02-25T11:40:49.179Z,27.40
2019-02-25T11:41:49.128Z,27.52
2019-02-25T11:42:49.092Z,27.45
2019-02-25T11:43:50.970Z,27.47
2019-02-25T11:44:49.005Z,27.47
2019-02-25T11:45:48.945Z,27.47
2019-02-25T11:46:48.925Z,27.48
2019-02-25T11:47:48.852Z,27.49
2019-02-25T11:48:48.842Z,27.49
2019-02-25T11:49:50.789Z,27.64
2019-02-25T11:50:48.761Z,27.74
2019-02-25T11:51:48.711Z,27.70
2019-02-25T11:52:48.671Z,27.74
2019-02-25T11:53:48.626Z,27.86
2019-02-25T11:54:48.593Z,27.95
2019-02-25T11:55:48.507Z,28.05
2019-02-25T11:56:48.476Z,28.12
2019-02-25T11:57:48.450Z,28.25
2019-02-25T11:58:48.414Z,28.52
2019-02-25T11:59:48.357Z,28.60
2019-02-25T12:00:48.326Z,28.67
2019-02-25T12:01:48.278Z,28.62
2019-02-25T12:02:48.243Z,28.60
2019-02-25T12:03:48.186Z,28.70
2019-02-25T12:04:48.532Z,28.67
2019-02-25T12:05:48.102Z,28.88
2019-02-25T12:06:48.074Z,29.04
2019-02-25T12:07:48.031Z,29.05
2019-02-25T12:08:47.991Z,29.05
2019-02-25T12:09:47.945Z,29.02
2019-02-25T12:10:47.903Z,28.94
2019-02-25T12:11:47.862Z,29.02
2019-02-25T12:12:47.817Z,29.13
2019-02-25T12:13:47.757Z,29.12
2019-02-25T12:14:47.739Z,29.04
2019-02-25T12:15:47.690Z,29.12
2019-02-25T12:16:47.634Z,29.17
2019-02-25T12:17:47.610Z,29.23
2019-02-25T12:18:47.569Z,29.17
2019-02-25T12:19:47.514Z,29.27
2019-02-25T12:20:47.452Z,29.23
2019-02-25T12:21:47.448Z,29.26
2019-02-25T12:22:47.383Z,29.42
2019-02-25T12:23:47.358Z,29.44
2019-02-25T12:24:47.284Z,29.47
2019-02-25T12:25:47.258Z,29.49
2019-02-25T12:26:47.224Z,29.57
2019-02-25T12:27:47.192Z,29.72
2019-02-25T12:28:47.149Z,29.76
2019-02-25T12:29:47.085Z,29.87
2019-02-25T12:30:47.051Z,29.90
2019-02-25T12:31:47.020Z,30.02
2019-02-25T12:32:46.972Z,30.06
2019-02-25T12:33:46.931Z,30.28
2019-02-25T12:34:46.903Z,30.27
2019-02-25T12:35:46.839Z,30.34
2019-02-25T12:36:46.811Z,30.39
2019-02-25T12:37:46.777Z,30.46
2019-02-25T12:38:46.731Z,30.32
2019-02-25T12:39:46.699Z,30.37
2019-02-25T12:40:46.676Z,30.34
2019-02-25T12:41:46.606Z,30.13
2019-02-25T12:42:46.585Z,30.27
2019-02-25T12:43:46.501Z,30.31
2019-02-25T12:44:46.472Z,30.28
2019-02-25T12:45:46.450Z,30.31
2019-02-25T12:46:46.389Z,30.34
2019-02-25T12:47:46.356Z,30.27
2019-02-25T12:48:46.314Z,30.23
2019-02-25T12:49:46.255Z,30.06
2019-02-25T12:50:46.233Z,30.05
2019-02-25T12:51:46.196Z,30.08